sensor_id;sensor_type;location;lat;lon;timestamp;temperature;humidity
43185;DHT22;28803;52.308;19.096;2023-02-28T00:01:32;-4.00;99.90
43185;DHT22;28803;52.308;19.096;2023-02-28T00:03:59;-4.00;99.90
43185;DHT22;28803;52.308;19.096;2023-02-28T00:06:27;-4.00;99.90
43185;DHT22;28803;52.308;19.096;2023-02-28T00:08:54;-4.10;99.90
43185;DHT22;28803;52.308;19.096;2023-02-28T00:11:21;-4.10;99.90
43185;DHT22;28803;52.308;19.096;2023-02-28T00:13:49;-4.20;99.90
43185;DHT22;28803;52.308;19.096;2023-02-28T00:16:19;-4.10;99.90
43185;DHT22;28803;52.308;19.096;2023-02-28T00:18:48;-4.10;99.90
43185;DHT22;28803;52.308;19.096;2023-02-28T00:21:16;-4.10;99.90
43185;DHT22;28803;52.308;19.096;2023-02-28T00:23:44;-4.10;99.90
43185;DHT22;28803;52.308;19.096;2023-02-28T00:26:11;-4.10;99.90
43185;DHT22;28803;52.308;19.096;2023-02-28T00:28:38;-4.10;99.90
43185;DHT22;28803;52.308;19.096;2023-02-28T00:31:05;-4.00;99.90
43185;DHT22;28803;52.308;19.096;2023-02-28T00:33:33;-3.90;99.90
43185;DHT22;28803;52.308;19.096;2023-02-28T00:36:08;-4.00;99.90
43185;DHT22;28803;52.308;19.096;2023-02-28T00:38:37;-4.00;99.90
43185;DHT22;28803;52.308;19.096;2023-02-28T00:41:05;-4.00;99.90
43185;DHT22;28803;52.308;19.096;2023-02-28T00:43:35;-4.00;99.90
43185;DHT22;28803;52.308;19.096;2023-02-28T00:46:03;-4.00;99.90
43185;DHT22;28803;52.308;19.096;2023-02-28T00:48:30;-4.10;99.90
43185;DHT22;28803;52.308;19.096;2023-02-28T00:50:57;-4.10;99.90
43185;DHT22;28803;52.308;19.096;2023-02-28T00:53:25;-4.10;99.90
43185;DHT22;28803;52.308;19.096;2023-02-28T00:55:52;-4.20;99.90
43185;DHT22;28803;52.308;19.096;2023-02-28T00:58:19;-4.20;99.90
43185;DHT22;28803;52.308;19.096;2023-02-28T01:00:47;-4.20;99.90
43185;DHT22;28803;52.308;19.096;2023-02-28T01:03:18;-4.20;99.90
43185;DHT22;28803;52.308;19.096;2023-02-28T01:05:46;-4.20;99.90
43185;DHT22;28803;52.308;19.096;2023-02-28T01:08:14;-4.20;99.90
43185;DHT22;28803;52.308;19.096;2023-02-28T01:10:41;-4.20;99.90
43185;DHT22;28803;52.308;19.096;2023-02-28T01:13:09;-4.20;99.90
43185;DHT22;28803;52.308;19.096;2023-02-28T01:15:36;-4.20;99.90
43185;DHT22;28803;52.308;19.096;2023-02-28T01:18:04;-4.20;99.90
43185;DHT22;28803;52.308;19.096;2023-02-28T01:20:31;-4.20;99.90
43185;DHT22;28803;52.308;19.096;2023-02-28T01:22:58;-4.20;99.90
43185;DHT22;28803;52.308;19.096;2023-02-28T01:25:25;-4.10;99.90
43185;DHT22;28803;52.308;19.096;2023-02-28T01:27:53;-4.10;99.90
43185;DHT22;28803;52.308;19.096;2023-02-28T01:30:20;-4.00;99.90
43185;DHT22;28803;52.308;19.096;2023-02-28T01:32:47;-4.00;99.90
43185;DHT22;28803;52.308;19.096;2023-02-28T01:35:14;-3.90;99.90
43185;DHT22;28803;52.308;19.096;2023-02-28T01:37:42;-3.90;99.90
43185;DHT22;28803;52.308;19.096;2023-02-28T01:40:09;-3.90;99.90
43185;DHT22;28803;52.308;19.096;2023-02-28T01:42:37;-3.90;99.90
43185;DHT22;28803;52.308;19.096;2023-02-28T01:45:40;-3.90;99.90
43185;DHT22;28803;52.308;19.096;2023-02-28T01:48:04;-3.90;99.90
43185;DHT22;28803;52.308;19.096;2023-02-28T01:50:38;-3.90;99.90
43185;DHT22;28803;52.308;19.096;2023-02-28T01:53:09;-3.90;99.90
43185;DHT22;28803;52.308;19.096;2023-02-28T01:55:37;-3.90;99.90
43185;DHT22;28803;52.308;19.096;2023-02-28T01:58:07;-4.00;99.90
43185;DHT22;28803;52.308;19.096;2023-02-28T02:00:35;-4.10;99.90
43185;DHT22;28803;52.308;19.096;2023-02-28T02:03:12;-4.10;99.90
43185;DHT22;28803;52.308;19.096;2023-02-28T02:05:42;-4.10;99.90
43185;DHT22;28803;52.308;19.096;2023-02-28T02:08:21;-4.10;99.90
43185;DHT22;28803;52.308;19.096;2023-02-28T02:10:55;-4.10;99.90
43185;DHT22;28803;52.308;19.096;2023-02-28T02:18:46;-4.20;99.90
43185;DHT22;28803;52.308;19.096;2023-02-28T02:36:22;-4.00;99.90
43185;DHT22;28803;52.308;19.096;2023-02-28T02:41:40;-4.00;99.90
43185;DHT22;28803;52.308;19.096;2023-02-28T02:44:43;-4.00;99.90
43185;DHT22;28803;52.308;19.096;2023-02-28T02:47:18;-4.00;99.90
43185;DHT22;28803;52.308;19.096;2023-02-28T02:49:51;-4.10;99.90
43185;DHT22;28803;52.308;19.096;2023-02-28T02:52:23;-4.00;99.90
43185;DHT22;28803;52.308;19.096;2023-02-28T02:54:54;-4.10;99.90
43185;DHT22;28803;52.308;19.096;2023-02-28T02:57:29;-4.10;99.90
43185;DHT22;28803;52.308;19.096;2023-02-28T02:59:57;-4.20;99.90
43185;DHT22;28803;52.308;19.096;2023-02-28T03:02:28;-4.20;99.90
43185;DHT22;28803;52.308;19.096;2023-02-28T03:05:04;-4.30;99.90
43185;DHT22;28803;52.308;19.096;2023-02-28T03:07:32;-4.30;99.90
43185;DHT22;28803;52.308;19.096;2023-02-28T03:10:00;-4.30;99.90
43185;DHT22;28803;52.308;19.096;2023-02-28T03:12:40;-4.30;99.90
43185;DHT22;28803;52.308;19.096;2023-02-28T03:15:13;-4.30;99.90
43185;DHT22;28803;52.308;19.096;2023-02-28T03:20:35;-4.20;99.90
43185;DHT22;28803;52.308;19.096;2023-02-28T03:23:27;-4.20;99.90
43185;DHT22;28803;52.308;19.096;2023-02-28T03:26:00;-4.20;99.90
43185;DHT22;28803;52.308;19.096;2023-02-28T03:28:47;-4.20;99.90
43185;DHT22;28803;52.308;19.096;2023-02-28T03:33:49;-4.20;99.90
43185;DHT22;28803;52.308;19.096;2023-02-28T03:36:25;-4.30;99.90
43185;DHT22;28803;52.308;19.096;2023-02-28T03:38:59;-4.30;99.90
43185;DHT22;28803;52.308;19.096;2023-02-28T03:41:35;-4.30;99.90
43185;DHT22;28803;52.308;19.096;2023-02-28T03:44:11;-4.30;99.90
43185;DHT22;28803;52.308;19.096;2023-02-28T03:46:50;-4.40;99.90
43185;DHT22;28803;52.308;19.096;2023-02-28T03:49:26;-4.40;99.90
43185;DHT22;28803;52.308;19.096;2023-02-28T03:51:56;-4.40;99.90
43185;DHT22;28803;52.308;19.096;2023-02-28T03:54:31;-4.40;99.90
43185;DHT22;28803;52.308;19.096;2023-02-28T03:57:13;-4.40;99.90
43185;DHT22;28803;52.308;19.096;2023-02-28T03:59:45;-4.40;99.90
43185;DHT22;28803;52.308;19.096;2023-02-28T04:02:14;-4.30;99.90
43185;DHT22;28803;52.308;19.096;2023-02-28T04:04:41;-4.30;99.90
43185;DHT22;28803;52.308;19.096;2023-02-28T04:07:16;-4.20;99.90
43185;DHT22;28803;52.308;19.096;2023-02-28T04:09:44;-4.20;99.90
43185;DHT22;28803;52.308;19.096;2023-02-28T04:12:11;-4.20;99.90
43185;DHT22;28803;52.308;19.096;2023-02-28T04:14:38;-4.20;99.90
43185;DHT22;28803;52.308;19.096;2023-02-28T04:17:05;-4.20;99.90
43185;DHT22;28803;52.308;19.096;2023-02-28T04:19:33;-4.20;99.90
43185;DHT22;28803;52.308;19.096;2023-02-28T04:22:00;-4.20;99.90
43185;DHT22;28803;52.308;19.096;2023-02-28T04:24:27;-4.30;99.90
43185;DHT22;28803;52.308;19.096;2023-02-28T04:26:57;-4.30;99.90
43185;DHT22;28803;52.308;19.096;2023-02-28T04:29:29;-4.30;99.90
43185;DHT22;28803;52.308;19.096;2023-02-28T04:31:57;-4.30;99.90
43185;DHT22;28803;52.308;19.096;2023-02-28T04:34:27;-4.40;99.90
43185;DHT22;28803;52.308;19.096;2023-02-28T04:36:55;-4.40;99.90
43185;DHT22;28803;52.308;19.096;2023-02-28T04:39:39;-4.50;99.90
43185;DHT22;28803;52.308;19.096;2023-02-28T04:42:06;-4.50;99.90
43185;DHT22;28803;52.308;19.096;2023-02-28T04:44:33;-4.50;99.90
43185;DHT22;28803;52.308;19.096;2023-02-28T04:47:00;-4.50;99.90
43185;DHT22;28803;52.308;19.096;2023-02-28T04:49:27;-4.60;99.90
43185;DHT22;28803;52.308;19.096;2023-02-28T04:51:54;-4.60;99.90
43185;DHT22;28803;52.308;19.096;2023-02-28T04:54:22;-4.60;99.90
43185;DHT22;28803;52.308;19.096;2023-02-28T04:56:49;-4.60;99.90
43185;DHT22;28803;52.308;19.096;2023-02-28T04:59:17;-4.60;99.90
43185;DHT22;28803;52.308;19.096;2023-02-28T05:01:48;-4.60;99.90
43185;DHT22;28803;52.308;19.096;2023-02-28T05:04:16;-4.60;99.90
43185;DHT22;28803;52.308;19.096;2023-02-28T05:06:44;-4.60;99.90
43185;DHT22;28803;52.308;19.096;2023-02-28T05:09:11;-4.60;99.90
43185;DHT22;28803;52.308;19.096;2023-02-28T05:11:39;-4.50;99.90
43185;DHT22;28803;52.308;19.096;2023-02-28T05:14:11;-4.50;99.90
43185;DHT22;28803;52.308;19.096;2023-02-28T05:16:38;-4.60;99.90
43185;DHT22;28803;52.308;19.096;2023-02-28T05:19:06;-4.60;99.90
43185;DHT22;28803;52.308;19.096;2023-02-28T05:21:36;-4.70;99.90
43185;DHT22;28803;52.308;19.096;2023-02-28T05:24:07;-4.70;99.90
43185;DHT22;28803;52.308;19.096;2023-02-28T05:26:39;-4.70;99.90
43185;DHT22;28803;52.308;19.096;2023-02-28T05:29:07;-4.70;99.90
43185;DHT22;28803;52.308;19.096;2023-02-28T05:31:34;-4.70;99.90
43185;DHT22;28803;52.308;19.096;2023-02-28T05:34:02;-4.70;99.90
43185;DHT22;28803;52.308;19.096;2023-02-28T05:36:31;-4.70;99.90
43185;DHT22;28803;52.308;19.096;2023-02-28T05:38:58;-4.70;99.90
43185;DHT22;28803;52.308;19.096;2023-02-28T05:41:26;-4.60;99.90
43185;DHT22;28803;52.308;19.096;2023-02-28T05:43:54;-4.60;99.90
43185;DHT22;28803;52.308;19.096;2023-02-28T05:46:21;-4.60;99.90
43185;DHT22;28803;52.308;19.096;2023-02-28T05:48:48;-4.60;99.90
43185;DHT22;28803;52.308;19.096;2023-02-28T05:51:16;-4.50;99.90
43185;DHT22;28803;52.308;19.096;2023-02-28T05:53:44;-4.50;99.90
43185;DHT22;28803;52.308;19.096;2023-02-28T05:56:11;-4.40;99.90
43185;DHT22;28803;52.308;19.096;2023-02-28T05:58:38;-4.30;99.90
43185;DHT22;28803;52.308;19.096;2023-02-28T06:01:30;-4.20;99.90
43185;DHT22;28803;52.308;19.096;2023-02-28T06:04:02;-4.10;99.90
43185;DHT22;28803;52.308;19.096;2023-02-28T06:06:30;-4.00;99.90
43185;DHT22;28803;52.308;19.096;2023-02-28T06:08:58;-4.00;99.90
43185;DHT22;28803;52.308;19.096;2023-02-28T06:11:25;-3.90;99.90
43185;DHT22;28803;52.308;19.096;2023-02-28T06:13:56;-3.80;99.90
43185;DHT22;28803;52.308;19.096;2023-02-28T06:16:24;-3.70;99.90
43185;DHT22;28803;52.308;19.096;2023-02-28T06:18:52;-3.50;99.90
43185;DHT22;28803;52.308;19.096;2023-02-28T06:21:19;-3.30;99.90
43185;DHT22;28803;52.308;19.096;2023-02-28T06:23:47;-3.10;99.90
43185;DHT22;28803;52.308;19.096;2023-02-28T06:26:14;-2.40;99.90
43185;DHT22;28803;52.308;19.096;2023-02-28T06:28:41;-2.00;99.90
43185;DHT22;28803;52.308;19.096;2023-02-28T06:31:10;-1.60;99.90
43185;DHT22;28803;52.308;19.096;2023-02-28T06:33:38;-1.10;99.90
43185;DHT22;28803;52.308;19.096;2023-02-28T06:36:06;-0.70;99.90
43185;DHT22;28803;52.308;19.096;2023-02-28T06:38:34;-0.50;99.90
43185;DHT22;28803;52.308;19.096;2023-02-28T06:41:01;0.10;99.90
43185;DHT22;28803;52.308;19.096;2023-02-28T06:43:32;0.80;99.90
43185;DHT22;28803;52.308;19.096;2023-02-28T06:46:01;1.90;99.90
43185;DHT22;28803;52.308;19.096;2023-02-28T06:48:30;2.90;99.90
43185;DHT22;28803;52.308;19.096;2023-02-28T06:51:08;3.50;99.90
43185;DHT22;28803;52.308;19.096;2023-02-28T06:53:36;4.00;99.90
43185;DHT22;28803;52.308;19.096;2023-02-28T06:56:05;4.10;99.90
43185;DHT22;28803;52.308;19.096;2023-02-28T06:58:34;4.30;99.90
43185;DHT22;28803;52.308;19.096;2023-02-28T07:01:02;4.80;99.90
43185;DHT22;28803;52.308;19.096;2023-02-28T07:03:30;5.40;98.80
43185;DHT22;28803;52.308;19.096;2023-02-28T07:06:00;5.80;95.40
43185;DHT22;28803;52.308;19.096;2023-02-28T07:08:28;6.20;93.10
43185;DHT22;28803;52.308;19.096;2023-02-28T07:10:56;6.80;91.80
43185;DHT22;28803;52.308;19.096;2023-02-28T07:13:24;7.50;89.60
43185;DHT22;28803;52.308;19.096;2023-02-28T07:15:59;8.20;84.00
43185;DHT22;28803;52.308;19.096;2023-02-28T07:18:27;8.50;78.40
43185;DHT22;28803;52.308;19.096;2023-02-28T07:20:55;8.40;76.30
43185;DHT22;28803;52.308;19.096;2023-02-28T07:23:23;7.80;73.20
43185;DHT22;28803;52.308;19.096;2023-02-28T07:25:50;7.40;77.70
43185;DHT22;28803;52.308;19.096;2023-02-28T07:28:18;7.30;77.70
43185;DHT22;28803;52.308;19.096;2023-02-28T07:30:45;7.90;78.30
43185;DHT22;28803;52.308;19.096;2023-02-28T07:33:12;8.40;71.70
43185;DHT22;28803;52.308;19.096;2023-02-28T07:35:39;7.90;70.70
43185;DHT22;28803;52.308;19.096;2023-02-28T07:38:07;6.30;74.80
43185;DHT22;28803;52.308;19.096;2023-02-28T07:40:35;5.10;81.50
43185;DHT22;28803;52.308;19.096;2023-02-28T07:43:03;4.70;85.30
43185;DHT22;28803;52.308;19.096;2023-02-28T07:45:30;5.60;86.80
43185;DHT22;28803;52.308;19.096;2023-02-28T07:48:01;7.30;75.40
43185;DHT22;28803;52.308;19.096;2023-02-28T07:50:29;8.60;70.20
43185;DHT22;28803;52.308;19.096;2023-02-28T07:52:59;9.20;64.80
43185;DHT22;28803;52.308;19.096;2023-02-28T07:55:26;9.60;62.70
43185;DHT22;28803;52.308;19.096;2023-02-28T07:57:54;10.00;61.10
43185;DHT22;28803;52.308;19.096;2023-02-28T08:00:21;10.60;59.40
43185;DHT22;28803;52.308;19.096;2023-02-28T08:02:49;11.40;56.80
43185;DHT22;28803;52.308;19.096;2023-02-28T08:05:17;12.30;55.90
43185;DHT22;28803;52.308;19.096;2023-02-28T08:07:49;13.00;53.10
43185;DHT22;28803;52.308;19.096;2023-02-28T08:10:17;14.10;50.50
43185;DHT22;28803;52.308;19.096;2023-02-28T08:12:44;15.20;48.20
43185;DHT22;28803;52.308;19.096;2023-02-28T08:15:12;15.60;47.40
43185;DHT22;28803;52.308;19.096;2023-02-28T08:17:39;16.20;45.40
43185;DHT22;28803;52.308;19.096;2023-02-28T08:20:07;16.60;44.20
43185;DHT22;28803;52.308;19.096;2023-02-28T08:22:36;17.10;43.10
43185;DHT22;28803;52.308;19.096;2023-02-28T08:25:03;17.40;43.40
43185;DHT22;28803;52.308;19.096;2023-02-28T08:27:31;18.00;42.20
43185;DHT22;28803;52.308;19.096;2023-02-28T08:29:58;17.50;40.90
43185;DHT22;28803;52.308;19.096;2023-02-28T08:32:25;17.40;42.70
43185;DHT22;28803;52.308;19.096;2023-02-28T08:34:56;17.60;40.20
43185;DHT22;28803;52.308;19.096;2023-02-28T08:37:24;17.10;40.60
43185;DHT22;28803;52.308;19.096;2023-02-28T08:39:51;17.40;41.60
43185;DHT22;28803;52.308;19.096;2023-02-28T08:42:23;18.90;39.90
43185;DHT22;28803;52.308;19.096;2023-02-28T08:44:50;20.00;39.00
43185;DHT22;28803;52.308;19.096;2023-02-28T08:47:19;20.80;37.40
43185;DHT22;28803;52.308;19.096;2023-02-28T08:49:46;21.40;37.10
43185;DHT22;28803;52.308;19.096;2023-02-28T08:52:13;20.90;35.70
43185;DHT22;28803;52.308;19.096;2023-02-28T08:54:40;20.20;36.50
43185;DHT22;28803;52.308;19.096;2023-02-28T08:57:07;20.00;36.30
43185;DHT22;28803;52.308;19.096;2023-02-28T08:59:35;20.40;36.40
43185;DHT22;28803;52.308;19.096;2023-02-28T09:02:02;21.40;35.90
43185;DHT22;28803;52.308;19.096;2023-02-28T09:04:29;22.30;34.80
43185;DHT22;28803;52.308;19.096;2023-02-28T09:06:58;23.30;33.80
43185;DHT22;28803;52.308;19.096;2023-02-28T09:09:25;23.70;34.20
43185;DHT22;28803;52.308;19.096;2023-02-28T09:11:54;24.30;32.60
43185;DHT22;28803;52.308;19.096;2023-02-28T09:14:21;24.60;32.50
43185;DHT22;28803;52.308;19.096;2023-02-28T09:16:49;25.00;31.60
43185;DHT22;28803;52.308;19.096;2023-02-28T09:19:16;25.20;31.10
43185;DHT22;28803;52.308;19.096;2023-02-28T09:21:44;23.40;31.90
43185;DHT22;28803;52.308;19.096;2023-02-28T09:24:11;22.00;34.00
43185;DHT22;28803;52.308;19.096;2023-02-28T09:26:41;22.00;34.10
43185;DHT22;28803;52.308;19.096;2023-02-28T09:29:28;22.80;33.60
43185;DHT22;28803;52.308;19.096;2023-02-28T09:31:56;23.60;32.50
43185;DHT22;28803;52.308;19.096;2023-02-28T09:34:26;23.60;32.00
43185;DHT22;28803;52.308;19.096;2023-02-28T09:36:54;23.10;31.60
43185;DHT22;28803;52.308;19.096;2023-02-28T09:39:22;23.90;31.30
43185;DHT22;28803;52.308;19.096;2023-02-28T09:41:51;23.60;31.30
43185;DHT22;28803;52.308;19.096;2023-02-28T09:44:38;22.20;32.10
43185;DHT22;28803;52.308;19.096;2023-02-28T09:47:34;21.70;33.20
43185;DHT22;28803;52.308;19.096;2023-02-28T09:50:29;20.80;33.90
43185;DHT22;28803;52.308;19.096;2023-02-28T09:52:54;19.90;33.70
43185;DHT22;28803;52.308;19.096;2023-02-28T09:55:33;20.60;34.40
43185;DHT22;28803;52.308;19.096;2023-02-28T09:58:23;20.50;33.30
43185;DHT22;28803;52.308;19.096;2023-02-28T10:01:18;20.90;34.10
43185;DHT22;28803;52.308;19.096;2023-02-28T10:03:57;20.20;33.00
43185;DHT22;28803;52.308;19.096;2023-02-28T10:06:30;19.40;34.80
43185;DHT22;28803;52.308;19.096;2023-02-28T10:11:29;18.10;36.00
43185;DHT22;28803;52.308;19.096;2023-02-28T10:14:18;14.10;41.40
43185;DHT22;28803;52.308;19.096;2023-02-28T10:16:55;10.10;47.30
43185;DHT22;28803;52.308;19.096;2023-02-28T10:19:34;7.00;53.90
43185;DHT22;28803;52.308;19.096;2023-02-28T10:27:22;3.60;63.10
43185;DHT22;28803;52.308;19.096;2023-02-28T10:29:52;3.10;66.60
43185;DHT22;28803;52.308;19.096;2023-02-28T10:32:29;2.90;67.60
43185;DHT22;28803;52.308;19.096;2023-02-28T10:35:06;2.50;70.40
43185;DHT22;28803;52.308;19.096;2023-02-28T10:37:41;2.40;71.30
43185;DHT22;28803;52.308;19.096;2023-02-28T10:46:03;2.10;79.10
43185;DHT22;28803;52.308;19.096;2023-02-28T10:48:34;2.00;81.50
43185;DHT22;28803;52.308;19.096;2023-02-28T10:51:14;1.90;83.20
43185;DHT22;28803;52.308;19.096;2023-02-28T10:53:55;1.80;86.90
43185;DHT22;28803;52.308;19.096;2023-02-28T10:56:30;1.80;86.50
43185;DHT22;28803;52.308;19.096;2023-02-28T10:58:59;1.70;86.60
43185;DHT22;28803;52.308;19.096;2023-02-28T11:01:42;1.70;89.90
43185;DHT22;28803;52.308;19.096;2023-02-28T11:06:46;1.60;89.70
43185;DHT22;28803;52.308;19.096;2023-02-28T11:09:30;1.70;89.70
43185;DHT22;28803;52.308;19.096;2023-02-28T11:12:00;1.70;90.60
43185;DHT22;28803;52.308;19.096;2023-02-28T11:14:29;1.80;91.00
43185;DHT22;28803;52.308;19.096;2023-02-28T11:17:03;1.80;91.50
43185;DHT22;28803;52.308;19.096;2023-02-28T11:19:43;2.00;92.60
43185;DHT22;28803;52.308;19.096;2023-02-28T11:22:18;1.90;92.10
43185;DHT22;28803;52.308;19.096;2023-02-28T11:24:49;4.20;92.80
43185;DHT22;28803;52.308;19.096;2023-02-28T11:30:00;1.80;90.70
43185;DHT22;28803;52.308;19.096;2023-02-28T11:32:29;1.80;91.20
43185;DHT22;28803;52.308;19.096;2023-02-28T11:35:17;1.80;92.10
43185;DHT22;28803;52.308;19.096;2023-02-28T11:37:49;1.80;92.40
43185;DHT22;28803;52.308;19.096;2023-02-28T11:40:46;2.00;92.70
43185;DHT22;28803;52.308;19.096;2023-02-28T11:52:33;2.40;93.20
43185;DHT22;28803;52.308;19.096;2023-02-28T12:14:35;1.80;92.50
43185;DHT22;28803;52.308;19.096;2023-02-28T12:28:28;2.00;92.10
43185;DHT22;28803;52.308;19.096;2023-02-28T12:31:18;1.80;92.20
43185;DHT22;28803;52.308;19.096;2023-02-28T12:33:51;1.80;93.10
43185;DHT22;28803;52.308;19.096;2023-02-28T12:36:20;1.90;93.90
43185;DHT22;28803;52.308;19.096;2023-02-28T12:39:00;1.90;93.10
43185;DHT22;28803;52.308;19.096;2023-02-28T12:41:51;1.90;92.90
43185;DHT22;28803;52.308;19.096;2023-02-28T12:44:37;1.80;91.80
43185;DHT22;28803;52.308;19.096;2023-02-28T12:47:16;1.80;93.20
43185;DHT22;28803;52.308;19.096;2023-02-28T12:55:16;1.90;91.80
43185;DHT22;28803;52.308;19.096;2023-02-28T13:09:25;1.80;92.80
43185;DHT22;28803;52.308;19.096;2023-02-28T13:11:54;1.90;93.80
43185;DHT22;28803;52.308;19.096;2023-02-28T13:19:31;1.90;92.40
43185;DHT22;28803;52.308;19.096;2023-02-28T13:22:00;1.90;93.40
43185;DHT22;28803;52.308;19.096;2023-02-28T13:24:40;1.90;94.20
43185;DHT22;28803;52.308;19.096;2023-02-28T13:29:42;2.10;93.40
43185;DHT22;28803;52.308;19.096;2023-02-28T13:34:41;2.00;94.60
43185;DHT22;28803;52.308;19.096;2023-02-28T13:39:52;2.00;94.10
43185;DHT22;28803;52.308;19.096;2023-02-28T13:42:46;2.10;92.70
43185;DHT22;28803;52.308;19.096;2023-02-28T13:45:24;2.00;94.00
43185;DHT22;28803;52.308;19.096;2023-02-28T13:47:54;2.00;93.10
43185;DHT22;28803;52.308;19.096;2023-02-28T13:50:37;2.00;93.30
43185;DHT22;28803;52.308;19.096;2023-02-28T13:55:53;2.00;92.70
43185;DHT22;28803;52.308;19.096;2023-02-28T14:03:41;1.90;92.50
43185;DHT22;28803;52.308;19.096;2023-02-28T14:06:31;1.80;92.50
43185;DHT22;28803;52.308;19.096;2023-02-28T14:11:47;1.80;93.10
43185;DHT22;28803;52.308;19.096;2023-02-28T14:17:16;1.70;92.20
43185;DHT22;28803;52.308;19.096;2023-02-28T14:19:46;1.60;92.30
43185;DHT22;28803;52.308;19.096;2023-02-28T14:25:23;1.70;92.90
43185;DHT22;28803;52.308;19.096;2023-02-28T14:30:40;1.80;93.70
43185;DHT22;28803;52.308;19.096;2023-02-28T14:33:57;1.80;93.00
43185;DHT22;28803;52.308;19.096;2023-02-28T14:36:38;1.80;92.60
43185;DHT22;28803;52.308;19.096;2023-02-28T14:41:40;1.70;91.90
43185;DHT22;28803;52.308;19.096;2023-02-28T14:44:36;1.70;92.10
43185;DHT22;28803;52.308;19.096;2023-02-28T14:47:03;1.60;92.30
43185;DHT22;28803;52.308;19.096;2023-02-28T14:49:37;1.50;92.80
43185;DHT22;28803;52.308;19.096;2023-02-28T14:54:37;1.60;94.70
43185;DHT22;28803;52.308;19.096;2023-02-28T14:57:05;1.70;94.90
43185;DHT22;28803;52.308;19.096;2023-02-28T14:59:35;1.70;94.60
43185;DHT22;28803;52.308;19.096;2023-02-28T15:02:19;1.70;93.90
43185;DHT22;28803;52.308;19.096;2023-02-28T15:04:54;1.60;93.50
43185;DHT22;28803;52.308;19.096;2023-02-28T15:07:22;1.60;93.90
43185;DHT22;28803;52.308;19.096;2023-02-28T15:10:24;1.60;94.30
43185;DHT22;28803;52.308;19.096;2023-02-28T15:13:00;1.60;95.90
43185;DHT22;28803;52.308;19.096;2023-02-28T15:20:59;1.60;94.00
43185;DHT22;28803;52.308;19.096;2023-02-28T15:23:30;1.50;95.00
43185;DHT22;28803;52.308;19.096;2023-02-28T15:25:58;1.50;95.20
43185;DHT22;28803;52.308;19.096;2023-02-28T15:28:27;1.50;94.80
43185;DHT22;28803;52.308;19.096;2023-02-28T15:31:00;1.50;94.90
43185;DHT22;28803;52.308;19.096;2023-02-28T15:33:31;1.50;95.00
43185;DHT22;28803;52.308;19.096;2023-02-28T15:36:13;1.40;95.40
43185;DHT22;28803;52.308;19.096;2023-02-28T15:38:42;1.40;95.40
43185;DHT22;28803;52.308;19.096;2023-02-28T15:41:25;1.30;95.60
43185;DHT22;28803;52.308;19.096;2023-02-28T15:44:13;1.30;97.20
43185;DHT22;28803;52.308;19.096;2023-02-28T15:49:22;1.10;98.00
43185;DHT22;28803;52.308;19.096;2023-02-28T15:51:51;1.10;98.00
43185;DHT22;28803;52.308;19.096;2023-02-28T15:54:23;1.00;98.00
43185;DHT22;28803;52.308;19.096;2023-02-28T15:56:53;0.90;98.50
43185;DHT22;28803;52.308;19.096;2023-02-28T15:59:27;0.90;98.70
43185;DHT22;28803;52.308;19.096;2023-02-28T16:02:17;0.80;98.60
43185;DHT22;28803;52.308;19.096;2023-02-28T16:07:42;0.50;99.10
43185;DHT22;28803;52.308;19.096;2023-02-28T16:10:12;0.40;99.60
43185;DHT22;28803;52.308;19.096;2023-02-28T16:12:41;0.30;99.90
43185;DHT22;28803;52.308;19.096;2023-02-28T16:15:21;0.20;99.90
43185;DHT22;28803;52.308;19.096;2023-02-28T16:17:49;0.20;99.90
43185;DHT22;28803;52.308;19.096;2023-02-28T16:20:34;0.10;99.90
43185;DHT22;28803;52.308;19.096;2023-02-28T16:23:01;0.00;99.90
43185;DHT22;28803;52.308;19.096;2023-02-28T16:25:38;-0.10;99.90
43185;DHT22;28803;52.308;19.096;2023-02-28T16:28:29;-0.20;99.90
43185;DHT22;28803;52.308;19.096;2023-02-28T16:31:00;-0.40;99.90
43185;DHT22;28803;52.308;19.096;2023-02-28T16:33:30;-0.40;99.90
43185;DHT22;28803;52.308;19.096;2023-02-28T16:35:58;-0.50;99.90
43185;DHT22;28803;52.308;19.096;2023-02-28T16:38:26;1.00;99.90
43185;DHT22;28803;52.308;19.096;2023-02-28T16:40:56;-0.60;99.90
43185;DHT22;28803;52.308;19.096;2023-02-28T16:43:26;-0.70;99.90
43185;DHT22;28803;52.308;19.096;2023-02-28T16:45:57;-0.80;99.90
43185;DHT22;28803;52.308;19.096;2023-02-28T16:48:27;-0.90;99.90
43185;DHT22;28803;52.308;19.096;2023-02-28T16:50:55;-0.90;99.90
43185;DHT22;28803;52.308;19.096;2023-02-28T16:53:22;-0.90;99.90
43185;DHT22;28803;52.308;19.096;2023-02-28T16:55:49;-0.90;99.90
43185;DHT22;28803;52.308;19.096;2023-02-28T16:58:17;-0.90;99.90
43185;DHT22;28803;52.308;19.096;2023-02-28T17:00:46;-0.90;99.90
43185;DHT22;28803;52.308;19.096;2023-02-28T17:03:23;-1.00;99.90
43185;DHT22;28803;52.308;19.096;2023-02-28T17:05:59;-1.10;99.90
43185;DHT22;28803;52.308;19.096;2023-02-28T17:08:26;-1.20;99.90
43185;DHT22;28803;52.308;19.096;2023-02-28T17:10:56;-1.40;99.90
43185;DHT22;28803;52.308;19.096;2023-02-28T17:13:24;-1.50;99.90
43185;DHT22;28803;52.308;19.096;2023-02-28T17:15:51;-1.60;99.90
43185;DHT22;28803;52.308;19.096;2023-02-28T17:18:19;-1.70;99.90
43185;DHT22;28803;52.308;19.096;2023-02-28T17:20:48;-1.70;99.90
43185;DHT22;28803;52.308;19.096;2023-02-28T17:23:15;-1.70;99.90
43185;DHT22;28803;52.308;19.096;2023-02-28T17:25:43;-1.70;99.90
43185;DHT22;28803;52.308;19.096;2023-02-28T17:28:24;-1.70;99.90
43185;DHT22;28803;52.308;19.096;2023-02-28T17:30:52;-1.80;99.90
43185;DHT22;28803;52.308;19.096;2023-02-28T17:33:19;-1.80;99.90
43185;DHT22;28803;52.308;19.096;2023-02-28T17:35:46;-1.90;99.90
43185;DHT22;28803;52.308;19.096;2023-02-28T17:38:18;-1.80;99.90
43185;DHT22;28803;52.308;19.096;2023-02-28T17:40:46;-1.80;99.90
43185;DHT22;28803;52.308;19.096;2023-02-28T17:43:13;-1.70;99.90
43185;DHT22;28803;52.308;19.096;2023-02-28T17:45:41;-1.70;99.90
43185;DHT22;28803;52.308;19.096;2023-02-28T17:48:12;-1.70;99.90
43185;DHT22;28803;52.308;19.096;2023-02-28T17:50:40;-1.80;99.90
43185;DHT22;28803;52.308;19.096;2023-02-28T17:53:08;-1.90;99.90
43185;DHT22;28803;52.308;19.096;2023-02-28T17:55:36;-2.00;99.90
43185;DHT22;28803;52.308;19.096;2023-02-28T17:58:03;-2.00;99.90
43185;DHT22;28803;52.308;19.096;2023-02-28T18:00:31;-2.10;99.90
43185;DHT22;28803;52.308;19.096;2023-02-28T18:03:00;-2.10;99.90
43185;DHT22;28803;52.308;19.096;2023-02-28T18:05:27;-2.00;99.90
43185;DHT22;28803;52.308;19.096;2023-02-28T18:07:55;-2.10;99.90
43185;DHT22;28803;52.308;19.096;2023-02-28T18:10:23;-2.10;99.90
43185;DHT22;28803;52.308;19.096;2023-02-28T18:12:51;-2.20;99.90
43185;DHT22;28803;52.308;19.096;2023-02-28T18:15:20;-2.30;99.90
43185;DHT22;28803;52.308;19.096;2023-02-28T18:17:49;-2.40;99.90
43185;DHT22;28803;52.308;19.096;2023-02-28T18:20:17;-2.40;99.90